sensor_id;sensor_type;location;lat;lon;timestamp;pressure;altitude;pressure_sealevel;temperature;humidity
61906;BME280;47863;55.766;37.672;2023-03-18T00:01:12;101581.03;;;-2.22;38.71
61906;BME280;47863;55.766;37.672;2023-03-18T00:03:38;101566.34;;;-2.29;38.35
61906;BME280;47863;55.766;37.672;2023-03-18T00:08:29;101576.69;;;-2.23;38.61
61906;BME280;47863;55.766;37.672;2023-03-18T00:10:56;101576.69;;;-2.23;38.43
61906;BME280;47863;55.766;37.672;2023-03-18T00:13:22;101548.22;;;-2.41;39.30
61906;BME280;47863;55.766;37.672;2023-03-18T00:15:50;101574.16;;;-2.27;38.80
61906;BME280;47863;55.766;37.672;2023-03-18T00:18:16;101543.25;;;-2.53;38.60
61906;BME280;47863;55.766;37.672;2023-03-18T00:20:41;101566.66;;;-2.43;38.49
61906;BME280;47863;55.766;37.672;2023-03-18T00:23:07;101583.97;;;-2.35;38.45
61906;BME280;47863;55.766;37.672;2023-03-18T00:25:34;101588.38;;;-2.36;38.10
61906;BME280;47863;55.766;37.672;2023-03-18T00:28:00;101585.75;;;-2.36;38.89
61906;BME280;47863;55.766;37.672;2023-03-18T00:30:25;101562.41;;;-2.48;38.58
61906;BME280;47863;55.766;37.672;2023-03-18T00:32:51;101559.16;;;-2.60;38.66
61906;BME280;47863;55.766;37.672;2023-03-18T00:35:17;101567.88;;;-2.59;38.12
61906;BME280;47863;55.766;37.672;2023-03-18T00:37:43;101588.56;;;-2.45;37.86
61906;BME280;47863;55.766;37.672;2023-03-18T00:40:10;101564.47;;;-2.63;38.07
61906;BME280;47863;55.766;37.672;2023-03-18T00:42:41;101588.66;;;-2.48;38.38
61906;BME280;47863;55.766;37.672;2023-03-18T00:45:14;101586.06;;;-2.51;38.63
61906;BME280;47863;55.766;37.672;2023-03-18T00:47:41;101558.59;;;-2.74;39.08
61906;BME280;47863;55.766;37.672;2023-03-18T00:50:08;101592.19;;;-2.51;38.86
61906;BME280;47863;55.766;37.672;2023-03-18T00:52:35;101593.94;;;-2.51;39.14
61906;BME280;47863;55.766;37.672;2023-03-18T00:55:02;101597.41;;;-2.51;39.50
61906;BME280;47863;55.766;37.672;2023-03-18T00:57:29;101601.00;;;-2.53;39.72
61906;BME280;47863;55.766;37.672;2023-03-18T00:59:56;101597.47;;;-2.52;39.51
61906;BME280;47863;55.766;37.672;2023-03-18T01:02:24;101572.44;;;-2.69;39.28
61906;BME280;47863;55.766;37.672;2023-03-18T01:04:49;101572.56;;;-2.73;39.65
61906;BME280;47863;55.766;37.672;2023-03-18T01:07:15;101601.97;;;-2.57;40.27
61906;BME280;47863;55.766;37.672;2023-03-18T01:09:41;101591.63;;;-2.65;39.59
61906;BME280;47863;55.766;37.672;2023-03-18T01:12:08;101609.81;;;-2.57;39.63
61906;BME280;47863;55.766;37.672;2023-03-18T01:14:35;101563.22;;;-2.87;39.45
61906;BME280;47863;55.766;37.672;2023-03-18T01:17:03;101615.22;;;-2.65;39.55
61906;BME280;47863;55.766;37.672;2023-03-18T01:19:29;101604.00;;;-2.70;39.36
61906;BME280;47863;55.766;37.672;2023-03-18T01:21:55;101618.81;;;-2.69;39.45
61906;BME280;47863;55.766;37.672;2023-03-18T01:24:20;101616.22;;;-2.71;39.50
61906;BME280;47863;55.766;37.672;2023-03-18T01:26:47;101617.09;;;-2.70;39.41
61906;BME280;47863;55.766;37.672;2023-03-18T01:29:12;101604.19;;;-2.81;38.83
61906;BME280;47863;55.766;37.672;2023-03-18T01:31:38;101527.56;;;-3.37;38.81
61906;BME280;47863;55.766;37.672;2023-03-18T01:34:04;101624.22;;;-2.77;38.86
61906;BME280;47863;55.766;37.672;2023-03-18T01:36:30;101630.41;;;-2.80;39.39
61906;BME280;47863;55.766;37.672;2023-03-18T01:38:55;101604.47;;;-2.95;39.22
61906;BME280;47863;55.766;37.672;2023-03-18T01:41:23;101624.44;;;-2.88;39.78
61906;BME280;47863;55.766;37.672;2023-03-18T01:43:50;101640.91;;;-2.81;39.48
61906;BME280;47863;55.766;37.672;2023-03-18T01:46:34;101635.66;;;-2.81;39.91
61906;BME280;47863;55.766;37.672;2023-03-18T01:52:10;101659.34;;;-2.84;39.64
61906;BME280;47863;55.766;37.672;2023-03-18T01:54:42;101625.53;;;-2.98;40.13
61906;BME280;47863;55.766;37.672;2023-03-18T01:57:09;101619.59;;;-3.08;39.91
61906;BME280;47863;55.766;37.672;2023-03-18T01:59:38;101660.22;;;-2.85;39.69
61906;BME280;47863;55.766;37.672;2023-03-18T02:02:11;101654.16;;;-2.87;40.35
61906;BME280;47863;55.766;37.672;2023-03-18T02:04:49;101656.78;;;-2.89;39.73
61906;BME280;47863;55.766;37.672;2023-03-18T02:07:16;101662.94;;;-2.88;40.86
61906;BME280;47863;55.766;37.672;2023-03-18T02:09:43;101662.97;;;-2.91;39.59
61906;BME280;47863;55.766;37.672;2023-03-18T02:12:11;101666.53;;;-2.94;41.07
61906;BME280;47863;55.766;37.672;2023-03-18T02:14:37;101635.38;;;-3.12;39.67
61906;BME280;47863;55.766;37.672;2023-03-18T02:17:25;101670.13;;;-3.00;39.71
61906;BME280;47863;55.766;37.672;2023-03-18T02:20:12;101658.03;;;-3.08;40.29
61906;BME280;47863;55.766;37.672;2023-03-18T02:22:50;101678.88;;;-3.01;41.20
61906;BME280;47863;55.766;37.672;2023-03-18T02:28:21;101657.44;;;-3.24;40.56
61906;BME280;47863;55.766;37.672;2023-03-18T02:30:51;101683.47;;;-3.12;40.90
61906;BME280;47863;55.766;37.672;2023-03-18T02:33:19;101682.56;;;-3.11;40.35
61906;BME280;47863;55.766;37.672;2023-03-18T02:35:50;101682.56;;;-3.11;41.55
61906;BME280;47863;55.766;37.672;2023-03-18T02:38:16;101683.47;;;-3.12;40.88
61906;BME280;47863;55.766;37.672;2023-03-18T02:40:42;101590.13;;;-3.70;41.06
61906;BME280;47863;55.766;37.672;2023-03-18T02:48:25;101678.53;;;-3.32;41.64
61906;BME280;47863;55.766;37.672;2023-03-18T02:50:53;101691.59;;;-3.27;41.86
61906;BME280;47863;55.766;37.672;2023-03-18T02:53:19;101704.59;;;-3.21;41.08
61906;BME280;47863;55.766;37.672;2023-03-18T02:55:45;101673.47;;;-3.41;41.89
61906;BME280;47863;55.766;37.672;2023-03-18T02:58:11;101681.31;;;-3.40;41.54
61906;BME280;47863;55.766;37.672;2023-03-18T03:00:37;101708.09;;;-3.22;41.99
61906;BME280;47863;55.766;37.672;2023-03-18T03:03:04;101670.97;;;-3.49;41.72
61906;BME280;47863;55.766;37.672;2023-03-18T03:05:30;101679.56;;;-3.41;41.35
61906;BME280;47863;55.766;37.672;2023-03-18T03:07:57;101716.00;;;-3.25;41.78
61906;BME280;47863;55.766;37.672;2023-03-18T03:10:23;101716.97;;;-3.29;42.21
61906;BME280;47863;55.766;37.672;2023-03-18T03:12:49;101670.25;;;-3.59;42.24
61906;BME280;47863;55.766;37.672;2023-03-18T03:15:16;101691.13;;;-3.54;41.92
61906;BME280;47863;55.766;37.672;2023-03-18T03:17:41;101706.75;;;-3.46;41.36
61906;BME280;47863;55.766;37.672;2023-03-18T03:20:08;101693.75;;;-3.54;41.79
61906;BME280;47863;55.766;37.672;2023-03-18T03:22:34;101711.97;;;-3.45;41.94
61906;BME280;47863;55.766;37.672;2023-03-18T03:25:00;101718.00;;;-3.40;41.94
61906;BME280;47863;55.766;37.672;2023-03-18T03:27:27;101719.72;;;-3.39;41.33
61906;BME280;47863;55.766;37.672;2023-03-18T03:29:53;101720.63;;;-3.40;41.86
61906;BME280;47863;55.766;37.672;2023-03-18T03:32:18;101679.16;;;-3.69;41.65
61906;BME280;47863;55.766;37.672;2023-03-18T03:34:44;101715.50;;;-3.47;41.65
61906;BME280;47863;55.766;37.672;2023-03-18T03:37:10;101727.63;;;-3.42;41.60
61906;BME280;47863;55.766;37.672;2023-03-18T03:39:36;101723.28;;;-3.43;42.16
61906;BME280;47863;55.766;37.672;2023-03-18T03:42:02;101680.97;;;-3.72;42.24
61906;BME280;47863;55.766;37.672;2023-03-18T03:44:27;101725.91;;;-3.44;42.38
61906;BME280;47863;55.766;37.672;2023-03-18T03:46:53;101720.75;;;-3.47;42.02
61906;BME280;47863;55.766;37.672;2023-03-18T03:49:19;101727.63;;;-3.42;41.91
61906;BME280;47863;55.766;37.672;2023-03-18T03:51:45;101728.50;;;-3.40;41.92
61906;BME280;47863;55.766;37.672;2023-03-18T03:54:11;101629.84;;;-3.96;41.64
61906;BME280;47863;55.766;37.672;2023-03-18T03:56:40;101711.94;;;-3.43;41.73
61906;BME280;47863;55.766;37.672;2023-03-18T03:59:06;101703.38;;;-3.54;41.38
61906;BME280;47863;55.766;37.672;2023-03-18T04:01:32;101736.19;;;-3.32;41.45
61906;BME280;47863;55.766;37.672;2023-03-18T04:03:59;101733.53;;;-3.27;41.95
61906;BME280;47863;55.766;37.672;2023-03-18T04:06:24;101746.53;;;-3.21;42.36
61906;BME280;47863;55.766;37.672;2023-03-18T04:08:50;101730.66;;;-3.13;42.03
61906;BME280;47863;55.766;37.672;2023-03-18T04:11:16;101737.28;;;-2.92;41.96
61906;BME280;47863;55.766;37.672;2023-03-18T04:13:42;101721.09;;;-2.68;41.53
61906;BME280;47863;55.766;37.672;2023-03-18T04:16:07;101745.22;;;-2.05;41.65
61906;BME280;47863;55.766;37.672;2023-03-18T04:18:33;101725.41;;;-1.80;41.26
61906;BME280;47863;55.766;37.672;2023-03-18T04:20:59;101746.66;;;-1.51;41.64
61906;BME280;47863;55.766;37.672;2023-03-18T04:23:25;101754.38;;;-1.45;41.42
61906;BME280;47863;55.766;37.672;2023-03-18T04:25:51;101754.75;;;-1.25;41.60
61906;BME280;47863;55.766;37.672;2023-03-18T04:28:17;101747.06;;;-0.96;41.41
61906;BME280;47863;55.766;37.672;2023-03-18T04:30:43;101748.97;;;-0.69;41.42
61906;BME280;47863;55.766;37.672;2023-03-18T04:33:08;101732.34;;;-0.40;41.27
61906;BME280;47863;55.766;37.672;2023-03-18T04:35:34;101723.97;;;0.07;40.84
61906;BME280;47863;55.766;37.672;2023-03-18T04:38:00;101761.59;;;0.69;40.88
61906;BME280;47863;55.766;37.672;2023-03-18T04:40:26;101741.50;;;1.18;40.77
61906;BME280;47863;55.766;37.672;2023-03-18T04:42:51;101715.06;;;1.68;40.87
61906;BME280;47863;55.766;37.672;2023-03-18T04:45:17;101744.16;;;2.37;40.26
61906;BME280;47863;55.766;37.672;2023-03-18T04:47:44;101750.66;;;2.95;40.21
61906;BME280;47863;55.766;37.672;2023-03-18T04:50:11;101760.66;;;3.29;40.65
61906;BME280;47863;55.766;37.672;2023-03-18T04:52:38;101746.78;;;3.24;40.93
61906;BME280;47863;55.766;37.672;2023-03-18T04:55:05;101735.50;;;2.98;40.87
61906;BME280;47863;55.766;37.672;2023-03-18T04:57:31;101766.47;;;2.96;40.89
61906;BME280;47863;55.766;37.672;2023-03-18T04:59:56;101765.50;;;2.77;41.40
61906;BME280;47863;55.766;37.672;2023-03-18T05:02:22;101754.03;;;2.54;41.08
61906;BME280;47863;55.766;37.672;2023-03-18T05:04:48;101775.22;;;2.54;40.97
61906;BME280;47863;55.766;37.672;2023-03-18T05:07:15;101760.53;;;2.47;41.16
61906;BME280;47863;55.766;37.672;2023-03-18T05:09:41;101748.91;;;2.51;40.72
61906;BME280;47863;55.766;37.672;2023-03-18T05:12:15;101782.19;;;2.79;40.89
61906;BME280;47863;55.766;37.672;2023-03-18T05:14:42;101764.19;;;2.87;40.61
61906;BME280;47863;55.766;37.672;2023-03-18T05:17:09;101756.75;;;3.17;40.03
61906;BME280;47863;55.766;37.672;2023-03-18T05:19:44;101780.94;;;3.71;39.75
61906;BME280;47863;55.766;37.672;2023-03-18T05:22:11;101781.59;;;4.14;39.61
61906;BME280;47863;55.766;37.672;2023-03-18T05:24:38;101766.13;;;4.43;39.35
61906;BME280;47863;55.766;37.672;2023-03-18T05:27:04;101786.00;;;4.90;39.24
61906;BME280;47863;55.766;37.672;2023-03-18T05:29:29;101754.22;;;5.06;39.12
61906;BME280;47863;55.766;37.672;2023-03-18T05:31:55;101783.69;;;5.53;39.05
61906;BME280;47863;55.766;37.672;2023-03-18T05:34:21;101781.53;;;5.78;38.70
61906;BME280;47863;55.766;37.672;2023-03-18T05:36:46;101779.31;;;5.86;39.08
61906;BME280;47863;55.766;37.672;2023-03-18T05:39:12;101789.81;;;5.89;39.19
61906;BME280;47863;55.766;37.672;2023-03-18T05:41:38;101733.03;;;5.72;38.66
61906;BME280;47863;55.766;37.672;2023-03-18T05:44:04;101783.59;;;6.22;38.94
61906;BME280;47863;55.766;37.672;2023-03-18T05:46:30;101787.81;;;6.42;39.02
61906;BME280;47863;55.766;37.672;2023-03-18T05:48:56;101781.50;;;6.60;38.27
61906;BME280;47863;55.766;37.672;2023-03-18T05:51:21;101781.38;;;6.93;37.97
61906;BME280;47863;55.766;37.672;2023-03-18T05:53:47;101789.41;;;7.38;37.38
61906;BME280;47863;55.766;37.672;2023-03-18T05:56:13;101773.38;;;7.83;36.61
61906;BME280;47863;55.766;37.672;2023-03-18T05:58:39;101794.50;;;8.58;36.08
61906;BME280;47863;55.766;37.672;2023-03-18T06:01:05;101795.22;;;9.01;35.82
61906;BME280;47863;55.766;37.672;2023-03-18T06:03:32;101747.13;;;8.74;35.35
61906;BME280;47863;55.766;37.672;2023-03-18T06:05:59;101791.13;;;8.96;35.95
61906;BME280;47863;55.766;37.672;2023-03-18T06:08:26;101782.69;;;8.74;35.15
61906;BME280;47863;55.766;37.672;2023-03-18T06:10:52;101789.63;;;8.91;35.37
61906;BME280;47863;55.766;37.672;2023-03-18T06:13:18;101780.25;;;8.99;35.23
61906;BME280;47863;55.766;37.672;2023-03-18T06:15:44;101793.53;;;9.13;35.26
61906;BME280;47863;55.766;37.672;2023-03-18T06:18:11;101801.38;;;9.29;35.02
61906;BME280;47863;55.766;37.672;2023-03-18T06:20:36;101799.78;;;9.26;34.92
61906;BME280;47863;55.766;37.672;2023-03-18T06:23:02;101775.91;;;9.10;34.79
61906;BME280;47863;55.766;37.672;2023-03-18T06:25:28;101798.56;;;9.18;34.85
61906;BME280;47863;55.766;37.672;2023-03-18T06:27:53;101803.75;;;9.33;34.74
61906;BME280;47863;55.766;37.672;2023-03-18T06:30:19;101803.22;;;9.28;33.90
61906;BME280;47863;55.766;37.672;2023-03-18T06:32:45;101796.88;;;9.29;34.02
61906;BME280;47863;55.766;37.672;2023-03-18T06:35:11;101807.53;;;9.57;33.65
61906;BME280;47863;55.766;37.672;2023-03-18T06:37:37;101811.72;;;9.86;33.75
61906;BME280;47863;55.766;37.672;2023-03-18T06:40:04;101806.06;;;10.04;33.77
61906;BME280;47863;55.766;37.672;2023-03-18T06:42:30;101816.00;;;10.27;33.63
61906;BME280;47863;55.766;37.672;2023-03-18T06:44:56;101804.00;;;10.70;33.27
61906;BME280;47863;55.766;37.672;2023-03-18T06:47:22;101810.13;;;11.20;33.08
61906;BME280;47863;55.766;37.672;2023-03-18T06:49:48;101805.88;;;11.76;32.65
61906;BME280;47863;55.766;37.672;2023-03-18T06:52:16;101807.75;;;12.20;32.21
61906;BME280;47863;55.766;37.672;2023-03-18T06:54:41;101803.69;;;12.71;31.98
61906;BME280;47863;55.766;37.672;2023-03-18T06:57:07;101813.78;;;13.22;31.82
61906;BME280;47863;55.766;37.672;2023-03-18T06:59:33;101803.25;;;13.31;31.47
61906;BME280;47863;55.766;37.672;2023-03-18T07:01:59;101792.22;;;13.76;31.18
61906;BME280;47863;55.766;37.672;2023-03-18T07:04:25;101824.91;;;14.54;30.50
61906;BME280;47863;55.766;37.672;2023-03-18T07:06:50;101809.28;;;15.17;30.22
61906;BME280;47863;55.766;37.672;2023-03-18T07:09:17;101815.91;;;15.81;29.48
61906;BME280;47863;55.766;37.672;2023-03-18T07:11:43;101810.53;;;16.46;28.53
61906;BME280;47863;55.766;37.672;2023-03-18T07:14:11;101810.44;;;17.12;28.38
61906;BME280;47863;55.766;37.672;2023-03-18T07:16:39;101806.00;;;17.91;28.11
61906;BME280;47863;55.766;37.672;2023-03-18T07:19:05;101815.72;;;18.36;27.37
61906;BME280;47863;55.766;37.672;2023-03-18T07:21:32;101803.91;;;18.96;27.05
61906;BME280;47863;55.766;37.672;2023-03-18T07:23:58;101810.88;;;19.89;26.32
61906;BME280;47863;55.766;37.672;2023-03-18T07:26:24;101810.78;;;20.92;25.41
61906;BME280;47863;55.766;37.672;2023-03-18T07:28:50;101808.28;;;21.75;24.91
61906;BME280;47863;55.766;37.672;2023-03-18T07:31:16;101804.34;;;22.52;23.46
61906;BME280;47863;55.766;37.672;2023-03-18T07:33:42;101807.44;;;23.22;23.08
61906;BME280;47863;55.766;37.672;2023-03-18T07:36:07;101806.72;;;23.84;22.58
61906;BME280;47863;55.766;37.672;2023-03-18T07:38:33;101811.94;;;24.49;22.44
61906;BME280;47863;55.766;37.672;2023-03-18T07:40:59;101810.19;;;24.89;22.43
61906;BME280;47863;55.766;37.672;2023-03-18T07:43:25;101818.44;;;25.03;22.21
61906;BME280;47863;55.766;37.672;2023-03-18T07:45:50;101815.09;;;25.14;22.19
61906;BME280;47863;55.766;37.672;2023-03-18T07:48:16;101814.66;;;25.17;21.72
61906;BME280;47863;55.766;37.672;2023-03-18T07:50:41;101801.34;;;24.94;21.77
61906;BME280;47863;55.766;37.672;2023-03-18T07:53:07;101816.91;;;24.80;21.37
61906;BME280;47863;55.766;37.672;2023-03-18T07:55:33;101800.88;;;24.29;20.53
61906;BME280;47863;55.766;37.672;2023-03-18T07:57:58;101796.06;;;24.38;20.85
61906;BME280;47863;55.766;37.672;2023-03-18T08:00:24;101808.53;;;25.02;20.61
61906;BME280;47863;55.766;37.672;2023-03-18T08:02:50;101803.94;;;25.29;19.72
61906;BME280;47863;55.766;37.672;2023-03-18T08:05:16;101795.09;;;25.94;19.15
61906;BME280;47863;55.766;37.672;2023-03-18T08:07:43;101796.91;;;26.71;18.24
61906;BME280;47863;55.766;37.672;2023-03-18T08:10:09;101812.50;;;27.48;17.44
61906;BME280;47863;55.766;37.672;2023-03-18T08:12:35;101803.31;;;28.04;16.78
61906;BME280;47863;55.766;37.672;2023-03-18T08:15:01;101810.47;;;28.61;16.58
61906;BME280;47863;55.766;37.672;2023-03-18T08:17:29;101814.97;;;29.04;16.54
61906;BME280;47863;55.766;37.672;2023-03-18T08:19:54;101815.22;;;29.44;16.46
61906;BME280;47863;55.766;37.672;2023-03-18T08:22:20;101804.19;;;29.68;16.50
61906;BME280;47863;55.766;37.672;2023-03-18T08:24:46;101824.56;;;29.43;16.22
61906;BME280;47863;55.766;37.672;2023-03-18T08:27:11;101817.44;;;28.45;16.38
61906;BME280;47863;55.766;37.672;2023-03-18T08:29:37;101814.13;;;27.81;16.38
61906;BME280;47863;55.766;37.672;2023-03-18T08:32:02;101798.53;;;27.49;16.24
61906;BME280;47863;55.766;37.672;2023-03-18T08:34:28;101802.72;;;27.52;16.17
61906;BME280;47863;55.766;37.672;2023-03-18T08:36:54;101814.25;;;27.42;15.96
61906;BME280;47863;55.766;37.672;2023-03-18T08:39:19;101805.19;;;27.60;15.60
61906;BME280;47863;55.766;37.672;2023-03-18T08:41:45;101785.38;;;27.52;15.29
61906;BME280;47863;55.766;37.672;2023-03-18T08:44:10;101806.19;;;27.91;15.28
61906;BME280;47863;55.766;37.672;2023-03-18T08:46:37;101787.09;;;28.15;15.22
61906;BME280;47863;55.766;37.672;2023-03-18T08:49:03;101805.06;;;28.84;14.97
61906;BME280;47863;55.766;37.672;2023-03-18T08:51:28;101776.91;;;28.94;13.84
61906;BME280;47863;55.766;37.672;2023-03-18T08:53:54;101800.31;;;29.34;13.91
61906;BME280;47863;55.766;37.672;2023-03-18T08:56:20;101792.88;;;29.58;13.61
61906;BME280;47863;55.766;37.672;2023-03-18T08:58:46;101773.69;;;29.87;13.95
61906;BME280;47863;55.766;37.672;2023-03-18T09:01:13;101789.53;;;29.67;12.90
61906;BME280;47863;55.766;37.672;2023-03-18T09:03:39;101782.69;;;29.35;13.54
61906;BME280;47863;55.766;37.672;2023-03-18T09:06:05;101790.84;;;29.53;13.41
61906;BME280;47863;55.766;37.672;2023-03-18T09:08:31;101788.34;;;29.87;13.20
61906;BME280;47863;55.766;37.672;2023-03-18T09:10:57;101794.28;;;30.19;13.28
61906;BME280;47863;55.766;37.672;2023-03-18T09:13:23;101786.38;;;30.11;13.31
61906;BME280;47863;55.766;37.672;2023-03-18T09:15:48;101788.09;;;30.00;13.29
61906;BME280;47863;55.766;37.672;2023-03-18T09:18:15;101789.28;;;29.57;13.42
61906;BME280;47863;55.766;37.672;2023-03-18T09:20:41;101778.25;;;29.57;12.70
61906;BME280;47863;55.766;37.672;2023-03-18T09:23:08;101777.97;;;30.18;12.65
61906;BME280;47863;55.766;37.672;2023-03-18T09:25:34;101782.63;;;30.17;12.56
61906;BME280;47863;55.766;37.672;2023-03-18T09:28:00;101760.59;;;29.94;12.16
61906;BME280;47863;55.766;37.672;2023-03-18T09:30:26;101761.09;;;29.91;12.26
61906;BME280;47863;55.766;37.672;2023-03-18T09:32:52;101778.00;;;30.06;12.14
61906;BME280;47863;55.766;37.672;2023-03-18T09:35:18;101776.50;;;30.15;12.43
61906;BME280;47863;55.766;37.672;2023-03-18T09:37:44;101770.19;;;29.91;12.50
61906;BME280;47863;55.766;37.672;2023-03-18T09:40:17;101745.34;;;29.56;11.27
61906;BME280;47863;55.766;37.672;2023-03-18T09:53:55;101730.94;;;29.30;11.53
61906;BME280;47863;55.766;37.672;2023-03-18T09:56:26;101759.91;;;28.97;11.79
61906;BME280;47863;55.766;37.672;2023-03-18T09:59:10;101755.47;;;28.96;12.02
61906;BME280;47863;55.766;37.672;2023-03-18T10:01:41;101752.31;;;29.23;12.06
61906;BME280;47863;55.766;37.672;2023-03-18T10:04:20;101754.56;;;29.14;11.39
61906;BME280;47863;55.766;37.672;2023-03-18T10:06:51;101748.50;;;28.94;11.33
61906;BME280;47863;55.766;37.672;2023-03-18T10:11:50;101723.59;;;28.58;11.49
61906;BME280;47863;55.766;37.672;2023-03-18T10:19:16;101730.69;;;29.20;11.04
61906;BME280;47863;55.766;37.672;2023-03-18T10:24:47;101733.25;;;30.33;9.90
61906;BME280;47863;55.766;37.672;2023-03-18T10:27:18;101711.84;;;30.28;10.01
61906;BME280;47863;55.766;37.672;2023-03-18T10:35:36;101723.69;;;28.94;9.71
61906;BME280;47863;55.766;37.672;2023-03-18T10:38:02;101720.25;;;28.49;10.94
61906;BME280;47863;55.766;37.672;2023-03-18T10:40:37;101718.84;;;27.98;10.72
61906;BME280;47863;55.766;37.672;2023-03-18T10:43:13;101713.34;;;27.55;10.39
61906;BME280;47863;55.766;37.672;2023-03-18T10:45:42;101694.25;;;27.60;10.56
61906;BME280;47863;55.766;37.672;2023-03-18T10:48:14;101719.59;;;28.05;10.73
61906;BME280;47863;55.766;37.672;2023-03-18T10:50:48;101721.09;;;28.20;10.86
61906;BME280;47863;55.766;37.672;2023-03-18T10:53:35;101704.13;;;28.53;9.74
61906;BME280;47863;55.766;37.672;2023-03-18T10:56:08;101711.19;;;28.79;10.44
61906;BME280;47863;55.766;37.672;2023-03-18T10:58:36;101702.72;;;28.32;10.67
61906;BME280;47863;55.766;37.672;2023-03-18T11:01:05;101707.06;;;27.91;10.07
61906;BME280;47863;55.766;37.672;2023-03-18T11:03:34;101702.50;;;27.78;11.03
61906;BME280;47863;55.766;37.672;2023-03-18T11:06:02;101699.78;;;27.97;11.05
61906;BME280;47863;55.766;37.672;2023-03-18T11:08:37;101702.19;;;28.23;10.40
61906;BME280;47863;55.766;37.672;2023-03-18T11:11:15;101682.31;;;28.21;10.01
61906;BME280;47863;55.766;37.672;2023-03-18T11:13:46;101696.16;;;28.45;10.89
61906;BME280;47863;55.766;37.672;2023-03-18T11:24:32;101671.00;;;28.41;10.42
61906;BME280;47863;55.766;37.672;2023-03-18T11:27:21;101685.44;;;28.55;10.17
61906;BME280;47863;55.766;37.672;2023-03-18T11:29:56;101672.63;;;28.61;10.62
61906;BME280;47863;55.766;37.672;2023-03-18T11:32:31;101685.50;;;28.79;10.47
61906;BME280;47863;55.766;37.672;2023-03-18T11:34:59;101683.78;;;28.24;11.00
61906;BME280;47863;55.766;37.672;2023-03-18T11:37:46;101662.97;;;27.36;10.64
61906;BME280;47863;55.766;37.672;2023-03-18T11:40:24;101672.47;;;26.19;10.32
61906;BME280;47863;55.766;37.672;2023-03-18T11:42:56;101661.72;;;25.39;10.81
61906;BME280;47863;55.766;37.672;2023-03-18T11:47:58;101667.44;;;25.44;10.79
61906;BME280;47863;55.766;37.672;2023-03-18T11:50:35;101667.56;;;25.76;10.83
61906;BME280;47863;55.766;37.672;2023-03-18T11:53:15;101661.91;;;26.16;10.53
61906;BME280;47863;55.766;37.672;2023-03-18T11:55:49;101660.47;;;26.45;10.46
61906;BME280;47863;55.766;37.672;2023-03-18T12:01:14;101654.09;;;26.58;10.59
61906;BME280;47863;55.766;37.672;2023-03-18T12:04:05;101659.56;;;26.26;9.87
61906;BME280;47863;55.766;37.672;2023-03-18T12:06:58;101613.41;;;25.51;10.73
61906;BME280;47863;55.766;37.672;2023-03-18T12:09:51;101656.22;;;25.52;10.64
61906;BME280;47863;55.766;37.672;2023-03-18T12:12:32;101664.25;;;25.47;11.16
61906;BME280;47863;55.766;37.672;2023-03-18T12:15:21;101653.03;;;25.62;11.40
61906;BME280;47863;55.766;37.672;2023-03-18T12:23:52;101639.22;;;25.24;11.26
61906;BME280;47863;55.766;37.672;2023-03-18T12:26:25;101636.88;;;25.01;11.76
61906;BME280;47863;55.766;37.672;2023-03-18T12:33:54;101595.38;;;23.41;12.12
61906;BME280;47863;55.766;37.672;2023-03-18T12:47:28;101626.56;;;22.68;12.05
61906;BME280;47863;55.766;37.672;2023-03-18T12:52:38;101612.78;;;22.55;12.21
61906;BME280;47863;55.766;37.672;2023-03-18T12:55:15;101607.84;;;22.65;12.50
61906;BME280;47863;55.766;37.672;2023-03-18T13:00:48;101605.75;;;22.89;12.07
61906;BME280;47863;55.766;37.672;2023-03-18T13:05:49;101600.00;;;22.19;12.48
61906;BME280;47863;55.766;37.672;2023-03-18T13:11:30;101595.75;;;21.29;12.72
61906;BME280;47863;55.766;37.672;2023-03-18T13:16:46;101565.22;;;20.43;12.80
61906;BME280;47863;55.766;37.672;2023-03-18T13:19:14;101583.50;;;20.11;13.02
61906;BME280;47863;55.766;37.672;2023-03-18T13:21:46;101511.56;;;19.19;12.82
61906;BME280;47863;55.766;37.672;2023-03-18T13:24:24;101578.50;;;19.04;13.20
61906;BME280;47863;55.766;37.672;2023-03-18T13:27:11;101581.91;;;18.65;13.07
61906;BME280;47863;55.766;37.672;2023-03-18T13:29:59;101579.88;;;18.51;13.08
61906;BME280;47863;55.766;37.672;2023-03-18T13:32:55;101556.97;;;18.20;13.61
61906;BME280;47863;55.766;37.672;2023-03-18T13:36:21;101579.78;;;17.85;13.63
61906;BME280;47863;55.766;37.672;2023-03-18T13:38:49;101572.72;;;16.89;13.71
61906;BME280;47863;55.766;37.672;2023-03-18T13:43:59;101568.25;;;14.97;14.37
61906;BME280;47863;55.766;37.672;2023-03-18T13:46:30;101559.38;;;13.99;14.80
61906;BME280;47863;55.766;37.672;2023-03-18T13:49:00;101581.16;;;13.36;15.29
61906;BME280;47863;55.766;37.672;2023-03-18T13:54:01;101568.06;;;11.62;15.80
61906;BME280;47863;55.766;37.672;2023-03-18T13:56:32;101556.72;;;10.79;16.09
61906;BME280;47863;55.766;37.672;2023-03-18T13:59:02;101534.66;;;10.05;16.22
61906;BME280;47863;55.766;37.672;2023-03-18T14:01:56;101565.00;;;9.68;16.75
61906;BME280;47863;55.766;37.672;2023-03-18T14:04:31;101561.91;;;9.12;16.59
61906;BME280;47863;55.766;37.672;2023-03-18T14:07:16;101555.50;;;8.76;16.62
61906;BME280;47863;55.766;37.672;2023-03-18T14:17:55;101546.28;;;8.42;16.91
61906;BME280;47863;55.766;37.672;2023-03-18T14:20:25;101534.00;;;8.12;17.09
61906;BME280;47863;55.766;37.672;2023-03-18T14:23:16;101546.63;;;7.95;17.20
61906;BME280;47863;55.766;37.672;2023-03-18T14:25:42;101512.25;;;7.37;17.47
61906;BME280;47863;55.766;37.672;2023-03-18T14:35:52;101541.91;;;6.44;17.72
61906;BME280;47863;55.766;37.672;2023-03-18T14:38:21;101480.94;;;5.95;17.76
61906;BME280;47863;55.766;37.672;2023-03-18T14:40:49;101536.69;;;6.12;17.89
61906;BME280;47863;55.766;37.672;2023-03-18T14:46:07;101514.75;;;5.77;17.75